sensor_id;sensor_type;location;lat;lon;timestamp;P1;durP1;ratioP1;P2;durP2;ratioP2
19329;SDS011;9799;48.214;16.388;2023-10-09T00:00:50;4.53;;;3.43;;
19329;SDS011;9799;48.214;16.388;2023-10-09T00:04:15;2.90;;;2.40;;
19329;SDS011;9799;48.214;16.388;2023-10-09T00:07:36;3.73;;;2.97;;
19329;SDS011;9799;48.214;16.388;2023-10-09T00:11:00;3.50;;;2.50;;
19329;SDS011;9799;48.214;16.388;2023-10-09T00:14:35;3.50;;;2.80;;
19329;SDS011;9799;48.214;16.388;2023-10-09T00:17:58;5.90;;;2.77;;
19329;SDS011;9799;48.214;16.388;2023-10-09T00:21:19;4.63;;;3.10;;
19329;SDS011;9799;48.214;16.388;2023-10-09T00:24:41;5.80;;;3.13;;
19329;SDS011;9799;48.214;16.388;2023-10-09T00:28:06;4.73;;;3.30;;
19329;SDS011;9799;48.214;16.388;2023-10-09T00:31:29;4.80;;;3.00;;
19329;SDS011;9799;48.214;16.388;2023-10-09T00:34:52;3.60;;;2.80;;
19329;SDS011;9799;48.214;16.388;2023-10-09T00:38:17;3.43;;;2.83;;
19329;SDS011;9799;48.214;16.388;2023-10-09T00:41:43;6.20;;;3.67;;
19329;SDS011;9799;48.214;16.388;2023-10-09T00:45:06;5.90;;;3.23;;
19329;SDS011;9799;48.214;16.388;2023-10-09T00:48:30;3.97;;;3.13;;
19329;SDS011;9799;48.214;16.388;2023-10-09T00:51:57;3.17;;;2.67;;
19329;SDS011;9799;48.214;16.388;2023-10-09T00:55:18;5.10;;;2.80;;
19329;SDS011;9799;48.214;16.388;2023-10-09T00:58:47;3.60;;;2.80;;
19329;SDS011;9799;48.214;16.388;2023-10-09T01:02:16;4.63;;;2.90;;
19329;SDS011;9799;48.214;16.388;2023-10-09T01:05:39;5.73;;;3.33;;
19329;SDS011;9799;48.214;16.388;2023-10-09T01:09:08;6.20;;;2.97;;
19329;SDS011;9799;48.214;16.388;2023-10-09T01:12:31;4.50;;;3.53;;
19329;SDS011;9799;48.214;16.388;2023-10-09T01:15:52;5.60;;;2.90;;
19329;SDS011;9799;48.214;16.388;2023-10-09T01:19:18;3.17;;;2.67;;
19329;SDS011;9799;48.214;16.388;2023-10-09T01:22:43;5.33;;;2.93;;
19329;SDS011;9799;48.214;16.388;2023-10-09T01:26:05;3.77;;;3.20;;
19329;SDS011;9799;48.214;16.388;2023-10-09T01:29:26;5.27;;;3.07;;
19329;SDS011;9799;48.214;16.388;2023-10-09T01:32:48;4.07;;;3.10;;
19329;SDS011;9799;48.214;16.388;2023-10-09T01:36:10;4.23;;;2.80;;
19329;SDS011;9799;48.214;16.388;2023-10-09T01:39:34;3.73;;;2.93;;
19329;SDS011;9799;48.214;16.388;2023-10-09T01:43:00;5.80;;;2.90;;
19329;SDS011;9799;48.214;16.388;2023-10-09T01:46:23;4.43;;;3.00;;
19329;SDS011;9799;48.214;16.388;2023-10-09T01:49:44;3.77;;;2.90;;
19329;SDS011;9799;48.214;16.388;2023-10-09T01:53:08;5.20;;;3.40;;
19329;SDS011;9799;48.214;16.388;2023-10-09T01:56:36;2.67;;;2.30;;
19329;SDS011;9799;48.214;16.388;2023-10-09T02:00:01;4.97;;;3.17;;
19329;SDS011;9799;48.214;16.388;2023-10-09T02:03:24;3.40;;;2.90;;
19329;SDS011;9799;48.214;16.388;2023-10-09T02:06:48;6.70;;;3.30;;
19329;SDS011;9799;48.214;16.388;2023-10-09T02:10:12;5.80;;;3.40;;
19329;SDS011;9799;48.214;16.388;2023-10-09T02:13:45;3.63;;;2.70;;
19329;SDS011;9799;48.214;16.388;2023-10-09T02:17:14;3.67;;;2.90;;
19329;SDS011;9799;48.214;16.388;2023-10-09T02:20:38;4.30;;;2.73;;
19329;SDS011;9799;48.214;16.388;2023-10-09T02:24:00;3.40;;;2.57;;
19329;SDS011;9799;48.214;16.388;2023-10-09T02:27:25;3.80;;;2.50;;
19329;SDS011;9799;48.214;16.388;2023-10-09T02:31:12;3.27;;;2.60;;
19329;SDS011;9799;48.214;16.388;2023-10-09T02:34:37;4.07;;;2.77;;
19329;SDS011;9799;48.214;16.388;2023-10-09T02:37:58;2.67;;;2.27;;
19329;SDS011;9799;48.214;16.388;2023-10-09T02:41:19;2.60;;;2.40;;
19329;SDS011;9799;48.214;16.388;2023-10-09T02:44:47;3.43;;;2.17;;
19329;SDS011;9799;48.214;16.388;2023-10-09T02:48:10;3.30;;;2.37;;
19329;SDS011;9799;48.214;16.388;2023-10-09T02:51:34;3.20;;;2.30;;
19329;SDS011;9799;48.214;16.388;2023-10-09T02:55:01;5.20;;;3.07;;
19329;SDS011;9799;48.214;16.388;2023-10-09T02:58:31;4.30;;;3.07;;
19329;SDS011;9799;48.214;16.388;2023-10-09T03:01:56;2.97;;;2.63;;
19329;SDS011;9799;48.214;16.388;2023-10-09T03:05:19;3.57;;;2.90;;
19329;SDS011;9799;48.214;16.388;2023-10-09T03:08:41;5.47;;;3.30;;
19329;SDS011;9799;48.214;16.388;2023-10-09T03:12:03;4.70;;;2.90;;
19329;SDS011;9799;48.214;16.388;2023-10-09T03:15:25;3.50;;;2.77;;
19329;SDS011;9799;48.214;16.388;2023-10-09T03:18:49;4.83;;;3.20;;
19329;SDS011;9799;48.214;16.388;2023-10-09T03:22:13;3.33;;;2.70;;
19329;SDS011;9799;48.214;16.388;2023-10-09T03:25:35;4.73;;;3.83;;
19329;SDS011;9799;48.214;16.388;2023-10-09T03:28:57;5.90;;;3.07;;
19329;SDS011;9799;48.214;16.388;2023-10-09T03:32:20;4.57;;;3.83;;
19329;SDS011;9799;48.214;16.388;2023-10-09T03:35:41;3.87;;;2.97;;
19329;SDS011;9799;48.214;16.388;2023-10-09T03:39:02;9.60;;;4.90;;
19329;SDS011;9799;48.214;16.388;2023-10-09T03:42:39;8.00;;;4.47;;
19329;SDS011;9799;48.214;16.388;2023-10-09T03:46:01;7.37;;;3.93;;
19329;SDS011;9799;48.214;16.388;2023-10-09T03:49:24;5.20;;;3.93;;
19329;SDS011;9799;48.214;16.388;2023-10-09T03:52:45;4.93;;;3.77;;
19329;SDS011;9799;48.214;16.388;2023-10-09T03:56:07;7.83;;;4.30;;
19329;SDS011;9799;48.214;16.388;2023-10-09T03:59:33;4.47;;;4.00;;
19329;SDS011;9799;48.214;16.388;2023-10-09T04:02:57;4.70;;;3.80;;
19329;SDS011;9799;48.214;16.388;2023-10-09T04:06:19;4.30;;;3.87;;
19329;SDS011;9799;48.214;16.388;2023-10-09T04:09:40;6.13;;;4.00;;
19329;SDS011;9799;48.214;16.388;2023-10-09T04:13:06;5.83;;;4.23;;
19329;SDS011;9799;48.214;16.388;2023-10-09T04:16:32;4.30;;;3.60;;
19329;SDS011;9799;48.214;16.388;2023-10-09T04:20:10;3.93;;;3.53;;
19329;SDS011;9799;48.214;16.388;2023-10-09T04:23:49;6.93;;;4.37;;
19329;SDS011;9799;48.214;16.388;2023-10-09T04:27:27;5.77;;;3.87;;
19329;SDS011;9799;48.214;16.388;2023-10-09T04:30:55;7.10;;;4.43;;
19329;SDS011;9799;48.214;16.388;2023-10-09T04:34:19;5.93;;;3.50;;
19329;SDS011;9799;48.214;16.388;2023-10-09T04:37:47;7.07;;;3.73;;
19329;SDS011;9799;48.214;16.388;2023-10-09T04:41:11;6.57;;;4.13;;
19329;SDS011;9799;48.214;16.388;2023-10-09T04:44:46;5.97;;;3.80;;
19329;SDS011;9799;48.214;16.388;2023-10-09T04:48:40;5.73;;;4.07;;
19329;SDS011;9799;48.214;16.388;2023-10-09T04:52:06;8.13;;;3.87;;
19329;SDS011;9799;48.214;16.388;2023-10-09T04:55:27;5.10;;;4.07;;
19329;SDS011;9799;48.214;16.388;2023-10-09T04:58:57;5.13;;;3.97;;
19329;SDS011;9799;48.214;16.388;2023-10-09T05:02:27;4.60;;;3.43;;
19329;SDS011;9799;48.214;16.388;2023-10-09T05:05:56;4.70;;;3.20;;
19329;SDS011;9799;48.214;16.388;2023-10-09T05:09:41;5.90;;;3.40;;
19329;SDS011;9799;48.214;16.388;2023-10-09T05:13:14;9.17;;;3.80;;
19329;SDS011;9799;48.214;16.388;2023-10-09T05:16:47;4.23;;;3.33;;
19329;SDS011;9799;48.214;16.388;2023-10-09T05:20:14;7.30;;;3.53;;
19329;SDS011;9799;48.214;16.388;2023-10-09T05:23:53;3.57;;;3.27;;
19329;SDS011;9799;48.214;16.388;2023-10-09T05:27:29;5.07;;;3.20;;
19329;SDS011;9799;48.214;16.388;2023-10-09T05:31:17;4.93;;;3.23;;
19329;SDS011;9799;48.214;16.388;2023-10-09T05:35:06;6.03;;;4.17;;
19329;SDS011;9799;48.214;16.388;2023-10-09T05:38:35;5.00;;;3.57;;
19329;SDS011;9799;48.214;16.388;2023-10-09T05:42:03;6.57;;;3.80;;
19329;SDS011;9799;48.214;16.388;2023-10-09T05:45:31;5.93;;;3.10;;
19329;SDS011;9799;48.214;16.388;2023-10-09T05:49:12;7.97;;;3.00;;
19329;SDS011;9799;48.214;16.388;2023-10-09T05:52:45;11.13;;;5.97;;
19329;SDS011;9799;48.214;16.388;2023-10-09T05:56:25;7.90;;;5.07;;
19329;SDS011;9799;48.214;16.388;2023-10-09T06:00:04;4.77;;;3.67;;
19329;SDS011;9799;48.214;16.388;2023-10-09T06:03:43;7.23;;;3.67;;
19329;SDS011;9799;48.214;16.388;2023-10-09T06:07:14;5.93;;;3.63;;
19329;SDS011;9799;48.214;16.388;2023-10-09T06:10:45;5.13;;;3.13;;
19329;SDS011;9799;48.214;16.388;2023-10-09T06:14:07;4.33;;;3.23;;
19329;SDS011;9799;48.214;16.388;2023-10-09T06:17:33;5.43;;;4.13;;
19329;SDS011;9799;48.214;16.388;2023-10-09T06:21:02;7.23;;;4.00;;
19329;SDS011;9799;48.214;16.388;2023-10-09T06:24:50;8.57;;;3.23;;
19329;SDS011;9799;48.214;16.388;2023-10-09T06:28:15;8.17;;;4.07;;
19329;SDS011;9799;48.214;16.388;2023-10-09T06:31:38;8.33;;;3.70;;
19329;SDS011;9799;48.214;16.388;2023-10-09T06:35:18;7.10;;;5.37;;
19329;SDS011;9799;48.214;16.388;2023-10-09T06:38:41;5.90;;;3.50;;
19329;SDS011;9799;48.214;16.388;2023-10-09T06:42:31;7.03;;;3.47;;
19329;SDS011;9799;48.214;16.388;2023-10-09T06:46:04;8.70;;;3.23;;
19329;SDS011;9799;48.214;16.388;2023-10-09T06:49:39;4.70;;;3.50;;
19329;SDS011;9799;48.214;16.388;2023-10-09T06:53:20;5.20;;;3.23;;
19329;SDS011;9799;48.214;16.388;2023-10-09T06:56:44;17.93;;;3.43;;
19329;SDS011;9799;48.214;16.388;2023-10-09T07:00:23;6.07;;;3.17;;
19329;SDS011;9799;48.214;16.388;2023-10-09T07:04:03;4.50;;;3.47;;
19329;SDS011;9799;48.214;16.388;2023-10-09T07:07:37;3.37;;;2.70;;
19329;SDS011;9799;48.214;16.388;2023-10-09T07:11:09;7.93;;;3.20;;
19329;SDS011;9799;48.214;16.388;2023-10-09T07:15:02;3.70;;;2.80;;
19329;SDS011;9799;48.214;16.388;2023-10-09T07:18:38;5.93;;;3.40;;
19329;SDS011;9799;48.214;16.388;2023-10-09T07:22:10;4.47;;;2.50;;
19329;SDS011;9799;48.214;16.388;2023-10-09T07:25:42;4.80;;;2.83;;
19329;SDS011;9799;48.214;16.388;2023-10-09T07:29:18;3.07;;;2.30;;
19329;SDS011;9799;48.214;16.388;2023-10-09T07:32:42;5.67;;;3.20;;
19329;SDS011;9799;48.214;16.388;2023-10-09T07:36:07;4.23;;;3.10;;
19329;SDS011;9799;48.214;16.388;2023-10-09T07:39:30;4.17;;;2.60;;
19329;SDS011;9799;48.214;16.388;2023-10-09T07:42:54;6.63;;;3.00;;
19329;SDS011;9799;48.214;16.388;2023-10-09T07:46:24;5.27;;;2.93;;
19329;SDS011;9799;48.214;16.388;2023-10-09T07:49:51;4.10;;;2.80;;
19329;SDS011;9799;48.214;16.388;2023-10-09T07:53:13;3.70;;;2.03;;
19329;SDS011;9799;48.214;16.388;2023-10-09T07:56:40;6.00;;;2.63;;
19329;SDS011;9799;48.214;16.388;2023-10-09T08:00:06;6.87;;;3.10;;
19329;SDS011;9799;48.214;16.388;2023-10-09T08:03:47;7.53;;;3.07;;
19329;SDS011;9799;48.214;16.388;2023-10-09T08:07:16;4.37;;;2.67;;
19329;SDS011;9799;48.214;16.388;2023-10-09T08:10:44;4.63;;;2.47;;
19329;SDS011;9799;48.214;16.388;2023-10-09T08:14:25;3.90;;;2.43;;
19329;SDS011;9799;48.214;16.388;2023-10-09T08:18:05;6.87;;;2.93;;
19329;SDS011;9799;48.214;16.388;2023-10-09T08:21:32;4.53;;;2.73;;
19329;SDS011;9799;48.214;16.388;2023-10-09T08:25:03;5.30;;;2.60;;
19329;SDS011;9799;48.214;16.388;2023-10-09T08:28:24;9.23;;;2.63;;
19329;SDS011;9799;48.214;16.388;2023-10-09T08:32:00;5.73;;;2.80;;
19329;SDS011;9799;48.214;16.388;2023-10-09T08:35:37;3.33;;;2.60;;
19329;SDS011;9799;48.214;16.388;2023-10-09T08:39:06;9.17;;;3.30;;
19329;SDS011;9799;48.214;16.388;2023-10-09T08:42:36;4.57;;;2.80;;
19329;SDS011;9799;48.214;16.388;2023-10-09T08:45:58;2.90;;;2.63;;
19329;SDS011;9799;48.214;16.388;2023-10-09T08:49:23;7.67;;;3.00;;
19329;SDS011;9799;48.214;16.388;2023-10-09T08:52:44;6.33;;;3.27;;
19329;SDS011;9799;48.214;16.388;2023-10-09T08:56:08;4.93;;;3.63;;
19329;SDS011;9799;48.214;16.388;2023-10-09T08:59:30;5.03;;;3.40;;
19329;SDS011;9799;48.214;16.388;2023-10-09T09:02:52;4.20;;;2.70;;
19329;SDS011;9799;48.214;16.388;2023-10-09T09:06:15;8.73;;;5.53;;
19329;SDS011;9799;48.214;16.388;2023-10-09T09:09:38;7.17;;;3.27;;
19329;SDS011;9799;48.214;16.388;2023-10-09T09:13:16;6.67;;;3.17;;
19329;SDS011;9799;48.214;16.388;2023-10-09T09:16:40;6.57;;;4.00;;
19329;SDS011;9799;48.214;16.388;2023-10-09T09:20:18;11.03;;;4.17;;
19329;SDS011;9799;48.214;16.388;2023-10-09T09:23:46;5.50;;;3.53;;
19329;SDS011;9799;48.214;16.388;2023-10-09T09:27:16;4.07;;;3.27;;
19329;SDS011;9799;48.214;16.388;2023-10-09T09:30:40;4.77;;;3.30;;
19329;SDS011;9799;48.214;16.388;2023-10-09T09:34:01;5.93;;;3.77;;
19329;SDS011;9799;48.214;16.388;2023-10-09T09:37:28;6.60;;;4.00;;
19329;SDS011;9799;48.214;16.388;2023-10-09T09:40:54;9.03;;;3.40;;
19329;SDS011;9799;48.214;16.388;2023-10-09T09:44:16;9.27;;;3.70;;
19329;SDS011;9799;48.214;16.388;2023-10-09T09:47:38;10.27;;;3.63;;
19329;SDS011;9799;48.214;16.388;2023-10-09T09:51:00;11.03;;;3.67;;
19329;SDS011;9799;48.214;16.388;2023-10-09T09:54:26;5.43;;;3.83;;
19329;SDS011;9799;48.214;16.388;2023-10-09T09:57:53;6.40;;;4.40;;
19329;SDS011;9799;48.214;16.388;2023-10-09T10:01:16;9.60;;;3.73;;
19329;SDS011;9799;48.214;16.388;2023-10-09T10:04:44;10.37;;;3.50;;
19329;SDS011;9799;48.214;16.388;2023-10-09T10:08:09;7.57;;;4.13;;
19329;SDS011;9799;48.214;16.388;2023-10-09T10:11:41;15.73;;;3.87;;
19329;SDS011;9799;48.214;16.388;2023-10-09T10:15:05;14.10;;;4.10;;
19329;SDS011;9799;48.214;16.388;2023-10-09T10:18:34;11.47;;;4.13;;
19329;SDS011;9799;48.214;16.388;2023-10-09T10:22:23;8.03;;;4.23;;
19329;SDS011;9799;48.214;16.388;2023-10-09T10:25:46;4.73;;;3.27;;
19329;SDS011;9799;48.214;16.388;2023-10-09T10:29:16;8.90;;;4.30;;
19329;SDS011;9799;48.214;16.388;2023-10-09T10:32:56;7.60;;;3.90;;
19329;SDS011;9799;48.214;16.388;2023-10-09T10:36:28;6.40;;;4.53;;
19329;SDS011;9799;48.214;16.388;2023-10-09T10:39:50;8.23;;;4.03;;
19329;SDS011;9799;48.214;16.388;2023-10-09T10:43:18;6.93;;;4.00;;
19329;SDS011;9799;48.214;16.388;2023-10-09T10:46:51;4.13;;;3.13;;
19329;SDS011;9799;48.214;16.388;2023-10-09T10:50:17;10.37;;;4.20;;
19329;SDS011;9799;48.214;16.388;2023-10-09T10:53:54;10.63;;;4.90;;
19329;SDS011;9799;48.214;16.388;2023-10-09T10:57:36;8.83;;;4.20;;
19329;SDS011;9799;48.214;16.388;2023-10-09T11:01:13;11.10;;;4.60;;
19329;SDS011;9799;48.214;16.388;2023-10-09T11:04:35;7.30;;;4.00;;
19329;SDS011;9799;48.214;16.388;2023-10-09T11:08:05;12.03;;;4.67;;
19329;SDS011;9799;48.214;16.388;2023-10-09T11:11:30;5.43;;;4.03;;
19329;SDS011;9799;48.214;16.388;2023-10-09T11:14:51;9.03;;;4.50;;
19329;SDS011;9799;48.214;16.388;2023-10-09T11:18:27;5.63;;;4.17;;
19329;SDS011;9799;48.214;16.388;2023-10-09T11:21:49;7.97;;;4.10;;
19329;SDS011;9799;48.214;16.388;2023-10-09T11:25:19;7.83;;;4.03;;
19329;SDS011;9799;48.214;16.388;2023-10-09T11:28:39;11.07;;;4.53;;
19329;SDS011;9799;48.214;16.388;2023-10-09T11:32:08;9.53;;;5.13;;
19329;SDS011;9799;48.214;16.388;2023-10-09T11:35:36;8.53;;;4.40;;
19329;SDS011;9799;48.214;16.388;2023-10-09T11:38:58;17.60;;;6.00;;
19329;SDS011;9799;48.214;16.388;2023-10-09T11:42:38;7.03;;;3.67;;
19329;SDS011;9799;48.214;16.388;2023-10-09T11:46:08;7.83;;;4.50;;
19329;SDS011;9799;48.214;16.388;2023-10-09T11:49:51;8.27;;;4.77;;
19329;SDS011;9799;48.214;16.388;2023-10-09T11:53:39;7.47;;;4.67;;
19329;SDS011;9799;48.214;16.388;2023-10-09T11:57:02;7.73;;;4.57;;
19329;SDS011;9799;48.214;16.388;2023-10-09T12:00:25;13.60;;;5.33;;
19329;SDS011;9799;48.214;16.388;2023-10-09T12:03:49;13.33;;;4.87;;
19329;SDS011;9799;48.214;16.388;2023-10-09T12:07:11;8.47;;;5.20;;
19329;SDS011;9799;48.214;16.388;2023-10-09T12:10:32;12.17;;;4.50;;
19329;SDS011;9799;48.214;16.388;2023-10-09T12:13:53;7.93;;;4.80;;
19329;SDS011;9799;48.214;16.388;2023-10-09T12:17:17;18.20;;;6.37;;
19329;SDS011;9799;48.214;16.388;2023-10-09T12:20:39;15.67;;;6.30;;
19329;SDS011;9799;48.214;16.388;2023-10-09T12:24:00;9.83;;;5.80;;
19329;SDS011;9799;48.214;16.388;2023-10-09T12:27:31;9.13;;;5.43;;
19329;SDS011;9799;48.214;16.388;2023-10-09T12:30:52;15.63;;;6.77;;
19329;SDS011;9799;48.214;16.388;2023-10-09T12:34:15;12.00;;;6.65;;
19329;SDS011;9799;48.214;16.388;2023-10-09T12:37:36;11.20;;;5.78;;
19329;SDS011;9799;48.214;16.388;2023-10-09T12:41:03;11.40;;;5.73;;
19329;SDS011;9799;48.214;16.388;2023-10-09T12:44:36;13.13;;;5.47;;
19329;SDS011;9799;48.214;16.388;2023-10-09T12:47:59;13.17;;;5.80;;
19329;SDS011;9799;48.214;16.388;2023-10-09T12:51:24;11.90;;;6.97;;
19329;SDS011;9799;48.214;16.388;2023-10-09T12:54:48;14.97;;;5.77;;
19329;SDS011;9799;48.214;16.388;2023-10-09T12:58:10;12.27;;;6.57;;
19329;SDS011;9799;48.214;16.388;2023-10-09T13:01:34;16.17;;;5.57;;
19329;SDS011;9799;48.214;16.388;2023-10-09T13:05:03;12.20;;;6.13;;
19329;SDS011;9799;48.214;16.388;2023-10-09T13:08:27;13.83;;;5.90;;
19329;SDS011;9799;48.214;16.388;2023-10-09T13:11:54;10.27;;;5.73;;
19329;SDS011;9799;48.214;16.388;2023-10-09T13:15:19;9.23;;;6.10;;
19329;SDS011;9799;48.214;16.388;2023-10-09T13:18:40;8.30;;;5.83;;
19329;SDS011;9799;48.214;16.388;2023-10-09T13:22:08;13.47;;;5.87;;
19329;SDS011;9799;48.214;16.388;2023-10-09T13:25:33;9.27;;;5.47;;
19329;SDS011;9799;48.214;16.388;2023-10-09T13:28:59;11.17;;;6.33;;
19329;SDS011;9799;48.214;16.388;2023-10-09T13:32:20;12.40;;;6.20;;
19329;SDS011;9799;48.214;16.388;2023-10-09T13:35:41;11.07;;;6.63;;
19329;SDS011;9799;48.214;16.388;2023-10-09T13:39:10;8.87;;;5.97;;
19329;SDS011;9799;48.214;16.388;2023-10-09T13:42:44;17.27;;;6.23;;
19329;SDS011;9799;48.214;16.388;2023-10-09T13:46:05;9.87;;;5.73;;
19329;SDS011;9799;48.214;16.388;2023-10-09T13:49:27;14.40;;;5.83;;
19329;SDS011;9799;48.214;16.388;2023-10-09T13:52:50;13.57;;;6.20;;
19329;SDS011;9799;48.214;16.388;2023-10-09T13:56:13;11.53;;;6.03;;
19329;SDS011;9799;48.214;16.388;2023-10-09T13:59:39;12.83;;;6.63;;
19329;SDS011;9799;48.214;16.388;2023-10-09T14:03:08;12.23;;;5.87;;
19329;SDS011;9799;48.214;16.388;2023-10-09T14:06:33;16.47;;;6.50;;
19329;SDS011;9799;48.214;16.388;2023-10-09T14:09:54;12.57;;;6.37;;
19329;SDS011;9799;48.214;16.388;2023-10-09T14:13:16;13.73;;;7.27;;
19329;SDS011;9799;48.214;16.388;2023-10-09T14:16:46;17.20;;;6.53;;
19329;SDS011;9799;48.214;16.388;2023-10-09T14:20:08;10.90;;;6.90;;
19329;SDS011;9799;48.214;16.388;2023-10-09T14:23:43;10.33;;;6.07;;
19329;SDS011;9799;48.214;16.388;2023-10-09T14:27:06;11.43;;;7.00;;
19329;SDS011;9799;48.214;16.388;2023-10-09T14:30:30;13.07;;;6.40;;
19329;SDS011;9799;48.214;16.388;2023-10-09T14:33:55;13.33;;;6.70;;
19329;SDS011;9799;48.214;16.388;2023-10-09T14:37:16;15.87;;;6.07;;
19329;SDS011;9799;48.214;16.388;2023-10-09T14:40:40;10.23;;;5.70;;
19329;SDS011;9799;48.214;16.388;2023-10-09T14:44:03;11.77;;;6.57;;
19329;SDS011;9799;48.214;16.388;2023-10-09T14:47:25;16.13;;;6.93;;
19329;SDS011;9799;48.214;16.388;2023-10-09T14:50:47;9.73;;;5.93;;
19329;SDS011;9799;48.214;16.388;2023-10-09T14:54:12;10.53;;;6.50;;
19329;SDS011;9799;48.214;16.388;2023-10-09T14:57:37;10.73;;;5.47;;
19329;SDS011;9799;48.214;16.388;2023-10-09T15:01:06;11.73;;;5.00;;
19329;SDS011;9799;48.214;16.388;2023-10-09T15:04:30;10.83;;;4.73;;
19329;SDS011;9799;48.214;16.388;2023-10-09T15:07:56;7.17;;;4.37;;
19329;SDS011;9799;48.214;16.388;2023-10-09T15:11:20;11.57;;;5.33;;
19329;SDS011;9799;48.214;16.388;2023-10-09T15:14:43;10.83;;;6.17;;
19329;SDS011;9799;48.214;16.388;2023-10-09T15:18:04;11.30;;;6.07;;
19329;SDS011;9799;48.214;16.388;2023-10-09T15:21:25;10.77;;;6.33;;
19329;SDS011;9799;48.214;16.388;2023-10-09T15:24:48;13.10;;;6.77;;
19329;SDS011;9799;48.214;16.388;2023-10-09T15:28:09;14.73;;;6.83;;
19329;SDS011;9799;48.214;16.388;2023-10-09T15:31:31;12.10;;;6.73;;
19329;SDS011;9799;48.214;16.388;2023-10-09T15:34:54;13.97;;;6.23;;
19329;SDS011;9799;48.214;16.388;2023-10-09T15:38:16;11.73;;;6.10;;
19329;SDS011;9799;48.214;16.388;2023-10-09T15:41:40;18.53;;;6.70;;
19329;SDS011;9799;48.214;16.388;2023-10-09T15:45:01;9.90;;;6.30;;
19329;SDS011;9799;48.214;16.388;2023-10-09T15:48:25;15.53;;;6.93;;
19329;SDS011;9799;48.214;16.388;2023-10-09T15:51:47;11.90;;;5.30;;
19329;SDS011;9799;48.214;16.388;2023-10-09T15:55:08;16.53;;;5.97;;
19329;SDS011;9799;48.214;16.388;2023-10-09T15:58:33;14.37;;;7.00;;
19329;SDS011;9799;48.214;16.388;2023-10-09T16:01:55;11.13;;;6.60;;
19329;SDS011;9799;48.214;16.388;2023-10-09T16:05:16;14.73;;;7.43;;
19329;SDS011;9799;48.214;16.388;2023-10-09T16:08:41;12.30;;;6.33;;
19329;SDS011;9799;48.214;16.388;2023-10-09T16:12:04;14.57;;;6.20;;
19329;SDS011;9799;48.214;16.388;2023-10-09T16:15:27;11.90;;;5.90;;
19329;SDS011;9799;48.214;16.388;2023-10-09T16:18:49;16.60;;;5.70;;
19329;SDS011;9799;48.214;16.388;2023-10-09T16:22:11;13.00;;;5.63;;
19329;SDS011;9799;48.214;16.388;2023-10-09T16:25:32;14.53;;;5.80;;
19329;SDS011;9799;48.214;16.388;2023-10-09T16:28:54;12.27;;;5.97;;
19329;SDS011;9799;48.214;16.388;2023-10-09T16:32:21;10.03;;;5.80;;
19329;SDS011;9799;48.214;16.388;2023-10-09T16:35:43;12.27;;;6.00;;
19329;SDS011;9799;48.214;16.388;2023-10-09T16:39:06;11.07;;;5.53;;
19329;SDS011;9799;48.214;16.388;2023-10-09T16:42:37;17.57;;;7.90;;
19329;SDS011;9799;48.214;16.388;2023-10-09T16:46:01;18.07;;;6.50;;
19329;SDS011;9799;48.214;16.388;2023-10-09T16:49:29;15.10;;;6.43;;
19329;SDS011;9799;48.214;16.388;2023-10-09T16:52:51;15.33;;;6.30;;
19329;SDS011;9799;48.214;16.388;2023-10-09T16:56:13;12.50;;;6.10;;
19329;SDS011;9799;48.214;16.388;2023-10-09T16:59:35;10.57;;;6.83;;
19329;SDS011;9799;48.214;16.388;2023-10-09T17:02:58;19.27;;;7.20;;
19329;SDS011;9799;48.214;16.388;2023-10-09T17:06:21;11.77;;;6.80;;
19329;SDS011;9799;48.214;16.388;2023-10-09T17:09:43;8.77;;;5.60;;
19329;SDS011;9799;48.214;16.388;2023-10-09T17:13:07;8.80;;;6.23;;
19329;SDS011;9799;48.214;16.388;2023-10-09T17:16:30;12.37;;;5.13;;
19329;SDS011;9799;48.214;16.388;2023-10-09T17:19:52;9.47;;;5.13;;
19329;SDS011;9799;48.214;16.388;2023-10-09T17:23:16;8.30;;;5.63;;
19329;SDS011;9799;48.214;16.388;2023-10-09T17:26:39;11.43;;;6.57;;
19329;SDS011;9799;48.214;16.388;2023-10-09T17:30:05;11.13;;;5.83;;
19329;SDS011;9799;48.214;16.388;2023-10-09T17:33:28;13.93;;;6.33;;
19329;SDS011;9799;48.214;16.388;2023-10-09T17:36:51;12.17;;;6.73;;
19329;SDS011;9799;48.214;16.388;2023-10-09T17:40:15;12.37;;;6.80;;
19329;SDS011;9799;48.214;16.388;2023-10-09T17:43:38;12.73;;;7.70;;
19329;SDS011;9799;48.214;16.388;2023-10-09T17:47:01;11.87;;;6.93;;
19329;SDS011;9799;48.214;16.388;2023-10-09T17:50:23;11.07;;;6.23;;
19329;SDS011;9799;48.214;16.388;2023-10-09T17:53:45;9.97;;;6.23;;
19329;SDS011;9799;48.214;16.388;2023-10-09T17:57:08;8.10;;;6.27;;
19329;SDS011;9799;48.214;16.388;2023-10-09T18:00:30;15.50;;;7.90;;
19329;SDS011;9799;48.214;16.388;2023-10-09T18:03:55;14.63;;;8.03;;
19329;SDS011;9799;48.214;16.388;2023-10-09T18:07:19;14.00;;;7.87;;
19329;SDS011;9799;48.214;16.388;2023-10-09T18:10:43;18.77;;;7.87;;
19329;SDS011;9799;48.214;16.388;2023-10-09T18:14:12;29.80;;;22.97;;
19329;SDS011;9799;48.214;16.388;2023-10-09T18:17:36;17.40;;;11.27;;
19329;SDS011;9799;48.214;16.388;2023-10-09T18:21:00;14.97;;;11.17;;
19329;SDS011;9799;48.214;16.388;2023-10-09T18:24:26;15.30;;;8.03;;
19329;SDS011;9799;48.214;16.388;2023-10-09T18:27:48;15.53;;;7.83;;
19329;SDS011;9799;48.214;16.388;2023-10-09T18:31:12;11.33;;;6.97;;
19329;SDS011;9799;48.214;16.388;2023-10-09T18:34:35;11.60;;;6.67;;
19329;SDS011;9799;48.214;16.388;2023-10-09T18:37:58;14.23;;;7.30;;
19329;SDS011;9799;48.214;16.388;2023-10-09T18:41:24;15.83;;;7.87;;
19329;SDS011;9799;48.214;16.388;2023-10-09T18:44:48;14.17;;;7.57;;
19329;SDS011;9799;48.214;16.388;2023-10-09T18:48:13;16.57;;;7.00;;
19329;SDS011;9799;48.214;16.388;2023-10-09T18:51:42;14.33;;;7.03;;
19329;SDS011;9799;48.214;16.388;2023-10-09T18:55:06;14.40;;;6.80;;
19329;SDS011;9799;48.214;16.388;2023-10-09T18:58:31;15.73;;;7.73;;
19329;SDS011;9799;48.214;16.388;2023-10-09T19:01:54;12.87;;;6.47;;
19329;SDS011;9799;48.214;16.388;2023-10-09T19:05:20;10.20;;;6.77;;
19329;SDS011;9799;48.214;16.388;2023-10-09T19:08:43;13.67;;;6.20;;
19329;SDS011;9799;48.214;16.388;2023-10-09T19:12:08;12.57;;;5.37;;
19329;SDS011;9799;48.214;16.388;2023-10-09T19:15:30;9.93;;;5.53;;
19329;SDS011;9799;48.214;16.388;2023-10-09T19:18:53;11.90;;;6.00;;
19329;SDS011;9799;48.214;16.388;2023-10-09T19:22:18;12.70;;;6.40;;
19329;SDS011;9799;48.214;16.388;2023-10-09T19:25:41;10.70;;;4.97;;
19329;SDS011;9799;48.214;16.388;2023-10-09T19:29:03;17.60;;;6.33;;
19329;SDS011;9799;48.214;16.388;2023-10-09T19:32:27;14.70;;;5.53;;
19329;SDS011;9799;48.214;16.388;2023-10-09T19:35:50;10.93;;;5.83;;
19329;SDS011;9799;48.214;16.388;2023-10-09T19:39:20;12.63;;;5.43;;
19329;SDS011;9799;48.214;16.388;2023-10-09T19:42:43;13.47;;;6.10;;
19329;SDS011;9799;48.214;16.388;2023-10-09T19:46:08;13.53;;;5.00;;
19329;SDS011;9799;48.214;16.388;2023-10-09T19:49:31;13.00;;;5.20;;
19329;SDS011;9799;48.214;16.388;2023-10-09T19:52:57;12.43;;;6.10;;
19329;SDS011;9799;48.214;16.388;2023-10-09T19:56:22;9.03;;;5.17;;
19329;SDS011;9799;48.214;16.388;2023-10-09T19:59:45;11.33;;;5.87;;
19329;SDS011;9799;48.214;16.388;2023-10-09T20:03:07;14.90;;;6.03;;
19329;SDS011;9799;48.214;16.388;2023-10-09T20:06:29;11.10;;;6.07;;
19329;SDS011;9799;48.214;16.388;2023-10-09T20:09:51;11.97;;;4.93;;
19329;SDS011;9799;48.214;16.388;2023-10-09T20:13:19;12.70;;;5.67;;
19329;SDS011;9799;48.214;16.388;2023-10-09T20:16:45;7.50;;;5.00;;
19329;SDS011;9799;48.214;16.388;2023-10-09T20:20:08;12.63;;;4.57;;
19329;SDS011;9799;48.214;16.388;2023-10-09T20:23:30;12.97;;;5.17;;
19329;SDS011;9799;48.214;16.388;2023-10-09T20:26:53;11.20;;;5.13;;
19329;SDS011;9799;48.214;16.388;2023-10-09T20:30:15;11.67;;;6.00;;
19329;SDS011;9799;48.214;16.388;2023-10-09T20:33:37;15.63;;;5.80;;
19329;SDS011;9799;48.214;16.388;2023-10-09T20:36:58;12.20;;;4.80;;